Time;durP1;ratioP1;P1;durP2;ratioP2;P2;SDS_P1;SDS_P2;PMS_P1;PMS_P2;Temp;Humidity;BMP_temperature;BMP_pressure;BME280_temperature;BME280_humidity;BME280_pressure;Samples;Min_cycle;Max_cycle;Signal;HPM_P1;HPM_P2
2022/02/05 00:05:37;;;;;;;7.53;2.22;;;6.00;99.90;;;;;;5022476;28;20515;-74
2022/02/05 00:08:54;;;;;;;6.90;3.78;;;6.00;99.90;;;;;;5021684;28;20179;-74
2022/02/05 00:13:58;;;;;;;6.82;4.15;;;6.10;99.90;;;;;;5022100;28;20206;-74
2022/02/05 00:20:09;;;;;;;5.40;3.90;;;6.10;99.90;;;;;;5022519;28;20173;-74
2022/02/05 00:41:26;;;;;;;2.35;1.75;;;6.40;99.90;;;;;;5004076;28;20548;-74
2022/02/05 00:43:55;;;;;;;2.97;1.67;;;6.40;99.90;;;;;;5022353;28;20203;-74
2022/02/05 00:46:23;;;;;;;4.63;1.67;;;6.40;99.90;;;;;;5023540;28;21002;-74
2022/02/05 00:48:49;;;;;;;3.40;1.70;;;6.40;99.90;;;;;;5021638;28;20575;-75
2022/02/05 00:51:21;;;;;;;3.53;1.90;;;6.40;99.90;;;;;;5005617;28;20193;-75
2022/02/05 00:53:57;;;;;;;5.00;1.65;;;6.40;99.90;;;;;;5003233;28;20976;-75
2022/02/05 00:56:37;;;;;;;4.63;1.85;;;6.30;99.90;;;;;;5021885;28;20178;-76
2022/02/05 00:59:02;;;;;;;3.78;1.88;;;6.30;99.90;;;;;;5003849;28;20182;-76
2022/02/05 01:01:28;;;;;;;3.83;2.13;;;6.30;99.90;;;;;;5023068;28;20264;-75
2022/02/05 01:03:54;;;;;;;4.30;2.20;;;6.30;99.90;;;;;;5021301;28;20701;-75
2022/02/05 01:06:19;;;;;;;4.23;2.03;;;6.30;99.90;;;;;;4992188;28;20553;-75
2022/02/05 01:08:45;;;;;;;3.90;1.93;;;6.20;99.90;;;;;;5011841;28;20222;-75
2022/02/05 01:11:12;;;;;;;2.83;1.52;;;6.20;99.90;;;;;;5013638;28;20201;-75
2022/02/05 01:13:38;;;;;;;4.75;1.80;;;6.20;99.90;;;;;;5021405;28;20205;-75
2022/02/05 01:16:13;;;;;;;3.57;1.60;;;6.20;99.90;;;;;;5023099;28;20545;-75
2022/02/05 01:18:41;;;;;;;3.60;1.40;;;6.20;99.90;;;;;;5020455;28;20209;-75
2022/02/05 01:23:43;;;;;;;3.10;1.40;;;6.10;99.90;;;;;;5020907;28;20182;-75
2022/02/05 01:26:26;;;;;;;3.72;1.48;;;6.10;99.90;;;;;;5022504;28;20263;-75
2022/02/05 01:28:59;;;;;;;5.55;2.40;;;6.10;99.90;;;;;;5006747;28;20189;-75
2022/02/05 01:31:29;;;;;;;7.07;2.50;;;6.10;99.90;;;;;;4994900;28;20198;-75
2022/02/05 01:34:12;;;;;;;4.05;1.30;;;6.10;99.90;;;;;;5004971;28;20205;-75
2022/02/05 01:55:17;;;;;;;5.55;1.67;;;6.10;99.90;;;;;;5023802;28;20169;-75
2022/02/05 01:57:53;;;;;;;6.75;1.55;;;6.10;99.90;;;;;;5003296;28;20170;-75
2022/02/05 02:11:32;;;;;;;6.20;1.20;;;6.10;99.90;;;;;;5002876;28;20236;-75
2022/02/05 02:19:29;;;;;;;2.65;1.20;;;6.00;99.90;;;;;;5022408;28;20181;-75
2022/02/05 02:22:09;;;;;;;5.70;1.50;;;6.00;99.90;;;;;;4990226;28;20193;-75
2022/02/05 02:24:55;;;;;;;2.80;1.05;;;6.00;99.90;;;;;;5019922;28;20545;-75
2022/02/05 02:32:15;;;;;;;7.43;1.20;;;6.00;99.90;;;;;;5031893;28;20179;-76
2022/02/05 02:34:46;;;;;;;3.70;1.20;;;6.00;99.90;;;;;;5015654;28;20232;-74
2022/02/05 02:37:17;;;;;;;5.05;1.23;;;6.00;99.90;;;;;;5045408;28;20200;-75
2022/02/05 02:42:28;;;;;;;3.38;1.23;;;6.00;99.90;;;;;;5043736;28;20174;-74
2022/02/05 02:44:54;;;;;;;4.00;1.10;;;6.00;99.90;;;;;;5020246;28;20202;-76
2022/02/05 02:47:19;;;;;;;2.80;0.90;;;6.00;99.90;;;;;;5011459;28;20561;-75
2022/02/05 02:57:56;;;;;;;10.45;1.20;;;5.90;99.90;;;;;;5000223;28;20178;-75
2022/02/05 03:00:23;;;;;;;4.43;1.38;;;5.90;99.90;;;;;;4993578;28;20251;-75
2022/02/05 03:02:49;;;;;;;4.05;0.80;;;5.90;99.90;;;;;;5032134;28;20170;-76
2022/02/05 03:05:14;;;;;;;3.67;1.17;;;5.90;99.90;;;;;;5019393;28;20631;-75
2022/02/05 03:07:40;;;;;;;4.53;2.03;;;5.90;99.90;;;;;;5015509;28;20181;-75
2022/02/05 03:10:06;;;;;;;6.53;1.07;;;5.90;99.90;;;;;;5001184;28;20647;-75
2022/02/05 03:12:34;;;;;;;7.30;1.05;;;5.90;99.90;;;;;;5013083;28;20648;-76
2022/02/05 03:15:03;;;;;;;3.90;1.30;;;5.90;99.90;;;;;;5005423;28;20224;-75
2022/02/05 03:17:36;;;;;;;6.80;1.15;;;5.90;99.90;;;;;;5010790;28;20217;-75
2022/02/05 03:20:03;;;;;;;6.70;1.20;;;5.90;99.90;;;;;;5023961;28;20196;-75
2022/02/05 03:22:29;;;;;;;5.63;1.15;;;5.90;99.90;;;;;;4992631;28;20217;-75
2022/02/05 03:24:55;;;;;;;4.60;1.07;;;5.90;99.90;;;;;;5004816;28;20217;-75
2022/02/05 03:27:21;;;;;;;3.25;0.90;;;5.90;99.90;;;;;;5006065;28;20196;-74
2022/02/05 03:29:49;;;;;;;4.78;1.00;;;5.90;99.90;;;;;;5014540;28;20272;-75
2022/02/05 03:32:21;;;;;;;4.90;1.27;;;5.90;99.90;;;;;;5024024;28;20183;-75
2022/02/05 03:34:48;;;;;;;3.58;0.88;;;5.90;99.90;;;;;;5005857;28;20749;-75
2022/02/05 03:37:15;;;;;;;4.85;1.83;;;5.80;99.90;;;;;;5024871;28;20661;-75
2022/02/05 03:39:40;;;;;;;3.33;1.30;;;5.80;99.90;;;;;;5021784;28;20233;-75
2022/02/05 03:42:07;;;;;;;3.30;1.10;;;5.80;99.90;;;;;;5024739;28;20213;-76
2022/02/05 03:44:32;;;;;;;2.85;1.10;;;5.80;99.90;;;;;;5013099;28;20213;-76
2022/02/05 03:46:59;;;;;;;4.83;0.87;;;5.70;99.90;;;;;;5015575;28;20259;-75
2022/02/05 03:49:25;;;;;;;3.10;1.08;;;5.70;99.90;;;;;;4989151;28;20552;-75
2022/02/05 03:51:51;;;;;;;2.60;1.15;;;5.60;99.90;;;;;;5006580;28;20205;-75
2022/02/05 03:54:20;;;;;;;2.03;1.00;;;5.60;99.90;;;;;;5005082;28;20625;-75
2022/02/05 03:56:49;;;;;;;3.30;1.30;;;5.60;99.90;;;;;;5007300;28;20180;-75
2022/02/05 03:59:14;;;;;;;4.05;1.30;;;5.50;99.90;;;;;;5022254;28;20186;-75
2022/02/05 04:01:40;;;;;;;4.30;1.10;;;5.50;99.90;;;;;;5007125;28;20201;-75
2022/02/05 04:04:06;;;;;;;8.47;1.80;;;5.50;99.90;;;;;;5022006;28;20577;-75
2022/02/05 04:06:32;;;;;;;4.70;1.10;;;5.50;99.90;;;;;;5015814;28;20580;-75
2022/02/05 04:09:03;;;;;;;3.07;1.00;;;5.40;99.90;;;;;;4988158;28;20585;-75
2022/02/05 04:11:50;;;;;;;4.68;1.15;;;5.40;99.90;;;;;;5021144;28;20289;-75
2022/02/05 04:17:01;;;;;;;1.95;0.90;;;5.40;99.90;;;;;;5005401;28;20544;-75
2022/02/05 04:19:27;;;;;;;6.25;1.30;;;5.40;99.90;;;;;;5023757;28;20166;-75
2022/02/05 04:21:53;;;;;;;5.00;1.33;;;5.40;99.90;;;;;;5004558;28;20221;-75
2022/02/05 04:24:19;;;;;;;4.10;1.53;;;5.40;99.90;;;;;;5006264;28;20591;-75
2022/02/05 04:26:46;;;;;;;2.72;1.10;;;5.40;99.90;;;;;;5013414;28;20672;-75
2022/02/05 04:29:12;;;;;;;7.72;1.40;;;5.40;99.90;;;;;;5005371;28;20178;-75
2022/02/05 04:31:38;;;;;;;5.50;1.30;;;5.40;99.90;;;;;;5022243;28;20200;-75
2022/02/05 04:34:04;;;;;;;3.55;2.05;;;5.40;99.90;;;;;;5023195;28;20212;-75
2022/02/05 04:36:31;;;;;;;2.70;1.10;;;5.40;99.90;;;;;;5013398;28;20174;-75
2022/02/05 04:39:01;;;;;;;7.28;2.10;;;5.40;99.90;;;;;;5021694;28;20174;-74
2022/02/05 04:41:37;;;;;;;5.78;1.45;;;5.40;99.90;;;;;;5013394;28;20586;-75
2022/02/05 04:54:40;;;;;;;4.68;1.10;;;5.40;99.90;;;;;;5024703;28;20209;-75
2022/02/05 05:04:57;;;;;;;2.83;1.03;;;5.50;99.90;;;;;;5004250;28;20202;-75
2022/02/05 05:15:29;;;;;;;3.47;1.35;;;5.50;99.90;;;;;;5020528;28;20269;-75
2022/02/05 05:20:40;;;;;;;3.72;1.63;;;5.50;99.90;;;;;;5002415;28;20210;-75
2022/02/05 05:23:06;;;;;;;2.63;1.65;;;5.50;99.90;;;;;;5023520;28;20226;-75
2022/02/05 05:25:31;;;;;;;5.10;1.15;;;5.50;99.90;;;;;;5011541;28;20700;-75
2022/02/05 05:27:57;;;;;;;2.90;1.37;;;5.50;99.90;;;;;;5023529;28;20185;-76
2022/02/05 05:30:23;;;;;;;3.77;1.63;;;5.50;99.90;;;;;;5020108;28;20209;-74
2022/02/05 05:32:48;;;;;;;3.83;1.10;;;5.50;99.90;;;;;;5006043;28;20248;-75
2022/02/05 05:35:14;;;;;;;4.37;1.37;;;5.50;99.90;;;;;;5020237;28;20380;-75
2022/02/05 05:37:40;;;;;;;2.77;1.40;;;5.60;99.90;;;;;;4989588;28;20184;-75
2022/02/05 05:40:07;;;;;;;7.67;1.10;;;5.60;99.90;;;;;;5019397;28;20273;-75
2022/02/05 05:42:39;;;;;;;4.43;1.17;;;5.60;99.90;;;;;;5022820;28;20631;-75
2022/02/05 05:52:59;;;;;;;8.75;1.75;;;5.50;99.90;;;;;;5021837;28;20198;-75
2022/02/05 05:55:25;;;;;;;5.50;1.33;;;5.60;99.90;;;;;;5021657;28;20215;-75
2022/02/05 05:57:51;;;;;;;8.90;1.50;;;5.60;99.90;;;;;;5004251;28;20941;-75
2022/02/05 06:00:17;;;;;;;6.80;1.20;;;5.60;99.90;;;;;;5020983;28;20193;-75
2022/02/05 06:02:43;;;;;;;1.93;1.00;;;5.60;99.90;;;;;;5003833;28;20608;-75
2022/02/05 06:05:08;;;;;;;2.67;1.10;;;5.70;99.90;;;;;;5020350;28;20181;-75
2022/02/05 06:07:34;;;;;;;3.73;1.20;;;5.70;99.90;;;;;;5012451;28;20690;-75
2022/02/05 06:10:00;;;;;;;4.87;1.67;;;5.70;99.90;;;;;;5003540;28;20611;-75
2022/02/05 06:12:26;;;;;;;3.60;1.00;;;5.70;99.90;;;;;;5021412;28;20178;-75
2022/02/05 06:14:52;;;;;;;2.50;1.00;;;5.70;99.90;;;;;;5003959;28;20217;-75
2022/02/05 06:17:24;;;;;;;2.50;1.10;;;5.70;99.90;;;;;;5003900;28;20540;-75
2022/02/05 06:19:49;;;;;;;4.35;1.65;;;5.80;99.90;;;;;;5020292;28;20580;-75
2022/02/05 06:22:15;;;;;;;4.53;1.70;;;5.80;99.90;;;;;;5021947;28;20170;-75
2022/02/05 06:24:41;;;;;;;5.80;1.40;;;5.90;99.90;;;;;;5003223;28;20228;-75
2022/02/05 06:27:07;;;;;;;3.00;1.40;;;5.90;99.90;;;;;;5004023;28;20967;-75
2022/02/05 06:29:34;;;;;;;3.85;1.20;;;6.00;99.90;;;;;;5020579;28;20178;-75
2022/02/05 06:32:00;;;;;;;2.13;1.15;;;6.10;99.90;;;;;;5005401;28;20213;-75
2022/02/05 06:34:27;;;;;;;2.03;0.98;;;6.10;99.90;;;;;;5004720;28;20720;-79
2022/02/05 06:36:53;;;;;;;3.50;1.30;;;6.20;99.90;;;;;;5023578;28;20200;-79
2022/02/05 06:39:20;;;;;;;2.50;1.30;;;6.20;99.90;;;;;;5012590;28;20159;-80
2022/02/05 06:41:46;;;;;;;4.53;1.33;;;6.30;99.90;;;;;;4993666;28;20201;-79
2022/02/05 06:44:13;;;;;;;8.18;2.88;;;6.30;99.90;;;;;;5026596;28;20603;-79
2022/02/05 06:46:39;;;;;;;4.47;1.67;;;6.30;99.90;;;;;;5027166;28;20239;-79
2022/02/05 06:49:06;;;;;;;3.55;1.50;;;6.30;99.90;;;;;;5020522;28;20296;-79
2022/02/05 06:51:32;;;;;;;4.15;1.10;;;6.30;99.90;;;;;;5012176;28;20213;-73
2022/02/05 06:53:57;;;;;;;2.90;1.47;;;6.30;99.90;;;;;;5021890;28;20662;-72
2022/02/05 06:56:24;;;;;;;4.47;1.37;;;6.30;99.90;;;;;;5025889;28;21001;-72
2022/02/05 06:58:49;;;;;;;4.45;1.50;;;6.30;99.90;;;;;;5009190;28;20549;-72
2022/02/05 07:01:15;;;;;;;2.53;1.40;;;6.20;99.90;;;;;;5026259;28;20197;-72
2022/02/05 07:03:41;;;;;;;3.17;1.43;;;6.20;99.90;;;;;;5018704;28;20185;-73
2022/02/05 07:06:07;;;;;;;2.73;1.20;;;6.20;99.90;;;;;;5009238;28;20662;-72
2022/02/05 07:08:33;;;;;;;4.90;1.10;;;6.20;99.90;;;;;;5025525;28;20576;-72
2022/02/05 07:10:59;;;;;;;4.60;1.58;;;6.20;99.90;;;;;;5005601;28;20644;-74
2022/02/05 07:13:25;;;;;;;7.85;1.10;;;6.20;99.90;;;;;;5025462;28;20205;-73
2022/02/05 07:21:31;;;;;;;4.07;1.65;;;6.20;99.90;;;;;;5026306;28;20347;-73
2022/02/05 07:24:17;;;;;;;4.82;1.88;;;6.10;99.90;;;;;;5004706;28;20270;-73
2022/02/05 07:30:42;;;;;;;3.88;1.20;;;6.20;99.90;;;;;;5026154;28;20190;-84
2022/02/05 07:33:08;;;;;;;5.63;1.08;;;6.20;99.90;;;;;;4908078;29;20296;-80
2022/02/05 07:35:34;;;;;;;3.17;1.67;;;6.20;99.90;;;;;;4899429;29;20181;-81
2022/02/05 07:38:00;;;;;;;5.83;1.13;;;6.30;99.90;;;;;;4955118;28;20231;-80
2022/02/05 07:40:26;;;;;;;2.58;1.40;;;6.30;99.90;;;;;;5025756;28;20669;-81
2022/02/05 07:42:52;;;;;;;3.03;1.73;;;6.30;99.90;;;;;;5018432;28;20628;-81
2022/02/05 07:45:19;;;;;;;6.22;1.42;;;6.40;99.90;;;;;;5005640;28;20190;-80
2022/02/05 07:47:46;;;;;;;6.93;1.98;;;6.40;99.90;;;;;;5000353;28;20194;-80
2022/02/05 07:50:12;;;;;;;6.95;1.42;;;6.40;99.90;;;;;;5002749;28;20534;-81
2022/02/05 07:52:38;;;;;;;5.30;1.40;;;6.40;99.90;;;;;;4996418;28;20182;-81
2022/02/05 07:55:04;;;;;;;4.50;1.43;;;6.40;99.90;;;;;;5018867;28;20697;-81
2022/02/05 07:57:30;;;;;;;6.97;1.85;;;6.40;99.90;;;;;;5008709;28;20173;-80
2022/02/05 07:59:56;;;;;;;2.67;1.30;;;6.40;99.90;;;;;;5002062;28;20178;-80
2022/02/05 08:02:21;;;;;;;3.47;1.30;;;6.40;99.90;;;;;;5012954;28;20932;-81
2022/02/05 08:04:47;;;;;;;4.80;1.33;;;6.50;99.90;;;;;;5007265;28;20186;-80
2022/02/05 08:07:13;;;;;;;2.67;1.50;;;6.50;99.90;;;;;;5034812;28;20170;-80
2022/02/05 08:09:54;;;;;;;12.17;2.20;;;6.50;99.90;;;;;;4999199;28;20593;-80
2022/02/05 08:12:20;;;;;;;5.65;1.73;;;6.50;99.90;;;;;;5019438;28;21151;-80
2022/02/05 08:14:49;;;;;;;3.10;1.38;;;6.60;99.90;;;;;;5006150;28;20206;-80
2022/02/05 08:17:22;;;;;;;3.80;1.35;;;6.60;99.90;;;;;;5033645;28;20204;-80
2022/02/05 08:19:49;;;;;;;4.70;1.55;;;6.60;99.90;;;;;;5022701;28;20188;-80
2022/02/05 08:22:15;;;;;;;5.13;1.43;;;6.60;99.90;;;;;;5034702;28;20162;-80
2022/02/05 08:24:41;;;;;;;3.92;1.50;;;6.60;99.90;;;;;;5029303;28;20579;-79
2022/02/05 08:27:07;;;;;;;5.73;1.40;;;6.60;99.90;;;;;;5016557;28;20320;-79
2022/02/05 08:29:35;;;;;;;3.50;1.20;;;6.70;99.90;;;;;;5022755;28;20588;-79
2022/02/05 08:32:00;;;;;;;6.40;1.40;;;6.70;99.90;;;;;;5044615;28;20573;-80
2022/02/05 08:34:26;;;;;;;6.40;2.10;;;6.80;99.90;;;;;;5020605;28;20205;-80
2022/02/05 08:36:57;;;;;;;4.50;1.30;;;6.90;99.90;;;;;;5021698;28;20696;-80
2022/02/05 08:39:23;;;;;;;3.33;1.42;;;6.90;99.90;;;;;;5002790;28;20580;-80
2022/02/05 08:41:49;;;;;;;6.10;1.60;;;7.00;99.90;;;;;;5023588;28;20213;-80
2022/02/05 08:44:18;;;;;;;4.97;2.00;;;7.00;99.90;;;;;;5008640;28;20185;-81
2022/02/05 08:46:43;;;;;;;8.73;2.05;;;7.10;99.90;;;;;;5015578;28;20823;-79
2022/02/05 08:49:09;;;;;;;6.67;1.97;;;7.20;99.90;;;;;;4994984;28;20197;-80
2022/02/05 08:51:36;;;;;;;5.87;1.60;;;7.20;99.90;;;;;;5019967;28;20682;-79
2022/02/05 08:54:02;;;;;;;4.45;2.00;;;7.30;99.90;;;;;;5031111;28;20288;-80
2022/02/05 08:56:28;;;;;;;4.27;1.93;;;7.40;99.90;;;;;;5010062;28;20280;-80
2022/02/05 08:58:55;;;;;;;5.60;2.00;;;7.40;99.90;;;;;;5031734;28;21017;-80
2022/02/05 09:01:27;;;;;;;4.97;1.60;;;7.50;99.90;;;;;;5005178;28;20998;-81
2022/02/05 09:04:05;;;;;;;6.85;2.40;;;7.60;99.90;;;;;;5002019;28;20170;-80
2022/02/05 09:06:36;;;;;;;4.15;1.95;;;7.60;99.90;;;;;;5021155;28;20185;-81
2022/02/05 09:09:49;;;;;;;6.10;1.85;;;7.70;99.90;;;;;;5017730;28;20193;-81
2022/02/05 09:14:40;;;;;;;6.97;2.25;;;7.90;99.90;;;;;;5015437;28;20217;-80
2022/02/05 09:17:06;;;;;;;11.73;2.20;;;7.90;99.90;;;;;;5025791;28;20165;-81
2022/02/05 09:19:33;;;;;;;10.50;2.00;;;8.00;99.90;;;;;;5023481;28;20648;-80
2022/02/05 09:22:00;;;;;;;7.00;2.45;;;8.00;99.90;;;;;;5013278;28;20193;-80
2022/02/05 09:24:26;;;;;;;6.50;3.40;;;8.10;99.90;;;;;;5002728;28;20244;-80
2022/02/05 09:26:59;;;;;;;9.93;3.43;;;8.20;99.90;;;;;;5023678;28;20170;-82
2022/02/05 09:29:26;;;;;;;6.13;2.78;;;8.30;99.90;;;;;;5020848;28;20178;-81
2022/02/05 09:31:52;;;;;;;8.18;2.40;;;8.60;99.90;;;;;;5022656;28;20189;-82
2022/02/05 09:34:19;;;;;;;5.40;2.50;;;9.10;99.90;;;;;;5020820;28;20201;-82
2022/02/05 09:36:46;;;;;;;8.68;2.70;;;9.60;99.90;;;;;;5024719;28;20282;-80
2022/02/05 09:39:13;;;;;;;7.60;2.20;;;10.40;99.90;;;;;;4997767;28;20205;-81
2022/02/05 09:41:40;;;;;;;6.00;1.50;;;11.20;99.90;;;;;;4997090;28;20626;-81
2022/02/05 09:44:07;;;;;;;3.90;1.93;;;12.00;99.90;;;;;;5008483;28;20276;-82
2022/02/05 09:46:33;;;;;;;5.33;1.73;;;12.80;99.90;;;;;;5024074;28;20683;-80
2022/02/05 09:49:01;;;;;;;7.73;2.57;;;13.50;99.90;;;;;;5024121;28;20676;-80
2022/02/05 09:51:33;;;;;;;4.00;1.70;;;14.20;99.90;;;;;;5023772;28;20723;-80
2022/02/05 09:54:03;;;;;;;6.00;2.00;;;14.60;99.90;;;;;;5026492;28;20658;-81
2022/02/05 09:56:30;;;;;;;7.47;1.87;;;14.90;99.90;;;;;;5025986;28;20588;-81
2022/02/05 09:58:58;;;;;;;4.90;1.90;;;15.20;99.90;;;;;;5009906;28;21010;-81
2022/02/05 10:01:27;;;;;;;3.50;1.67;;;15.50;99.90;;;;;;5024216;28;20954;-81
2022/02/05 10:03:55;;;;;;;7.00;1.40;;;15.90;99.90;;;;;;5006712;28;21216;-81
2022/02/05 10:06:40;;;;;;;5.47;1.80;;;16.30;99.90;;;;;;4992787;28;20596;-81
2022/02/05 10:09:12;;;;;;;4.93;1.57;;;16.60;99.90;;;;;;5022357;28;20604;-81
2022/02/05 10:11:50;;;;;;;7.03;1.60;;;16.90;99.90;;;;;;5028601;28;20612;-81
2022/02/05 10:14:21;;;;;;;4.50;1.40;;;17.10;99.90;;;;;;5027431;28;21191;-80
2022/02/05 10:17:01;;;;;;;6.20;1.53;;;17.10;99.90;;;;;;5028389;28;20575;-81
2022/02/05 10:19:45;;;;;;;7.27;2.40;;;17.00;99.90;;;;;;5011920;28;20616;-83
2022/02/05 10:22:11;;;;;;;8.93;1.20;;;17.00;99.90;;;;;;4997663;28;20648;-79
2022/02/05 10:25:02;;;;;;;6.33;2.97;;;16.90;99.90;;;;;;5029063;28;20675;-80
2022/02/05 10:27:30;;;;;;;5.10;1.70;;;16.60;99.90;;;;;;5031497;28;21074;-80
2022/02/05 10:30:08;;;;;;;5.20;2.03;;;16.20;99.90;;;;;;5032879;28;20607;-80
2022/02/05 10:32:39;;;;;;;9.40;1.77;;;15.80;99.90;;;;;;5034808;28;20560;-79
2022/02/05 10:35:21;;;;;;;5.73;1.63;;;15.40;99.90;;;;;;5035639;28;20591;-80
2022/02/05 10:37:55;;;;;;;5.90;1.73;;;15.00;99.90;;;;;;5035868;28;20556;-80
2022/02/05 10:40:41;;;;;;;4.13;1.33;;;14.70;99.90;;;;;;5020892;28;20622;-80
2022/02/05 10:43:08;;;;;;;7.50;2.03;;;14.40;99.90;;;;;;5021575;28;20571;-80
2022/02/05 10:45:47;;;;;;;3.73;1.50;;;14.10;99.90;;;;;;5022823;28;20576;-81
2022/02/05 10:48:16;;;;;;;3.50;1.40;;;13.90;99.90;;;;;;5005617;28;20568;-80
2022/02/05 10:50:42;;;;;;;8.63;2.63;;;13.70;99.90;;;;;;5018639;28;20596;-80
2022/02/05 10:53:37;;;;;;;5.37;1.77;;;13.50;99.90;;;;;;5036518;28;21012;-80
2022/02/05 10:56:24;;;;;;;5.90;1.35;;;13.20;99.90;;;;;;5029544;28;21170;-81
2022/02/05 11:07:21;;;;;;;3.88;1.30;;;12.20;99.90;;;;;;5026974;28;20276;-78
2022/02/05 11:09:50;;;;;;;4.03;1.40;;;11.90;99.90;;;;;;5015246;28;20209;-78
2022/02/05 11:12:48;;;;;;;5.32;1.95;;;11.70;99.90;;;;;;5037441;28;20190;-79
2022/02/05 11:15:21;;;;;;;4.85;1.60;;;11.50;99.90;;;;;;5013762;28;20190;-78
2022/02/05 11:20:32;;;;;;;5.03;2.20;;;11.10;99.90;;;;;;5036267;28;20197;-79
2022/02/05 11:23:02;;;;;;;8.53;2.60;;;10.90;99.90;;;;;;5033704;28;20191;-79
2022/02/05 11:25:35;;;;;;;3.53;1.60;;;10.70;99.90;;;;;;5029709;28;20573;-79
2022/02/05 11:28:01;;;;;;;5.05;2.13;;;10.60;99.90;;;;;;5031292;28;20174;-78
2022/02/05 11:30:27;;;;;;;3.13;1.87;;;10.40;99.90;;;;;;5034184;28;20257;-80
2022/02/05 11:33:03;;;;;;;6.17;3.47;;;10.20;99.90;;;;;;5039361;28;20663;-80
2022/02/05 11:35:43;;;;;;;9.80;3.25;;;10.10;99.90;;;;;;5038320;28;20561;-79
2022/02/05 11:38:09;;;;;;;5.18;2.92;;;9.90;99.90;;;;;;5046272;28;20528;-79
2022/02/05 11:40:49;;;;;;;5.70;3.35;;;9.70;99.90;;;;;;5034905;28;20201;-79
2022/02/05 11:43:32;;;;;;;7.65;3.40;;;9.70;99.90;;;;;;5035931;28;20537;-78
2022/02/05 11:46:04;;;;;;;9.50;3.58;;;9.60;99.90;;;;;;5035634;28;20173;-78
2022/02/05 11:48:39;;;;;;;5.97;2.50;;;9.60;99.90;;;;;;5030806;28;20174;-79
2022/02/05 11:51:20;;;;;;;6.57;2.72;;;9.70;99.90;;;;;;5034735;28;20185;-79
2022/02/05 11:54:05;;;;;;;7.43;3.10;;;9.80;99.90;;;;;;5034359;28;20206;-78
2022/02/05 11:59:20;;;;;;;6.38;1.90;;;10.00;99.90;;;;;;5034169;28;20522;-79
2022/02/05 12:01:46;;;;;;;5.25;2.10;;;10.10;99.90;;;;;;5025716;28;20247;-79
2022/02/05 12:04:19;;;;;;;9.75;2.40;;;10.20;99.90;;;;;;5013027;28;20265;-78
2022/02/05 12:07:00;;;;;;;4.57;2.42;;;10.30;99.90;;;;;;5013826;28;20178;-78
2022/02/05 12:09:40;;;;;;;5.13;2.00;;;10.40;99.90;;;;;;4992520;28;20227;-79
2022/02/05 12:12:26;;;;;;;4.57;1.60;;;10.60;99.90;;;;;;5022048;28;20779;-78
2022/02/05 12:15:13;;;;;;;5.95;1.52;;;10.80;99.90;;;;;;5028548;28;20228;-78
2022/02/05 12:17:55;;;;;;;4.70;1.45;;;11.00;99.90;;;;;;5026301;28;20741;-79
2022/02/05 12:20:26;;;;;;;5.40;1.88;;;11.10;99.90;;;;;;5014232;28;20194;-79
2022/02/05 12:25:53;;;;;;;4.15;1.33;;;11.40;99.90;;;;;;5020931;28;20215;-79
2022/02/05 12:28:36;;;;;;;4.30;1.42;;;11.60;99.90;;;;;;5024735;28;20652;-79
2022/02/05 12:31:26;;;;;;;4.78;1.80;;;11.60;99.90;;;;;;5030308;28;20194;-78
2022/02/05 12:34:13;;;;;;;4.70;1.70;;;11.60;99.90;;;;;;5026962;28;20206;-78
2022/02/05 12:36:43;;;;;;;3.75;1.83;;;11.70;99.90;;;;;;5021315;28;20541;-79
2022/02/05 12:39:32;;;;;;;3.17;1.50;;;11.70;99.90;;;;;;5005180;28;20177;-78
2022/02/05 12:41:58;;;;;;;6.00;1.70;;;11.70;99.90;;;;;;5022594;28;20322;-79
2022/02/05 12:44:28;;;;;;;3.93;1.60;;;11.70;99.90;;;;;;4987001;28;20281;-78
2022/02/05 12:47:06;;;;;;;4.65;1.92;;;11.80;99.90;;;;;;5015726;28;20182;-79
2022/02/05 12:49:52;;;;;;;5.90;3.80;;;11.80;99.90;;;;;;5020328;28;20174;-78
2022/02/05 12:52:28;;;;;;;6.13;3.20;;;11.80;99.90;;;;;;5028737;28;20526;-78
2022/02/05 12:54:59;;;;;;;7.50;3.25;;;11.90;99.90;;;;;;5021385;28;20796;-79
2022/02/05 12:57:29;;;;;;;3.67;1.77;;;11.90;99.90;;;;;;5024961;28;20435;-79
2022/02/05 13:00:02;;;;;;;6.07;1.88;;;11.90;99.90;;;;;;5022532;28;20174;-79
2022/02/05 13:02:29;;;;;;;7.63;2.25;;;11.90;99.90;;;;;;5023784;28;20185;-78
2022/02/05 13:04:55;;;;;;;5.47;1.95;;;12.00;99.90;;;;;;5007519;28;20182;-79
2022/02/05 13:07:23;;;;;;;5.88;1.73;;;12.00;99.90;;;;;;5022163;28;20240;-78
2022/02/05 13:10:02;;;;;;;4.57;1.35;;;12.00;99.90;;;;;;5025194;28;20177;-78
2022/02/05 13:12:34;;;;;;;5.47;3.47;;;11.90;99.90;;;;;;5021863;28;20229;-79
2022/02/05 13:15:05;;;;;;;4.80;2.83;;;11.90;99.90;;;;;;5023722;28;20661;-79
2022/02/05 13:17:53;;;;;;;4.97;1.85;;;12.00;99.90;;;;;;5025932;28;20338;-79
2022/02/05 13:36:39;;;;;;;5.00;2.03;;;12.00;99.90;;;;;;5024497;28;20169;-78
2022/02/05 13:44:52;;;;;;;5.13;3.03;;;11.80;99.90;;;;;;5035324;28;20566;-79
2022/02/05 13:47:17;;;;;;;10.18;4.07;;;11.70;99.90;;;;;;5009633;28;20618;-79
2022/02/05 13:50:00;;;;;;;7.73;3.50;;;11.70;99.90;;;;;;5027380;28;20216;-79
2022/02/05 13:52:53;;;;;;;10.63;4.75;;;11.60;99.90;;;;;;5020284;28;20271;-78
2022/02/05 13:55:31;;;;;;;8.20;3.08;;;11.50;99.90;;;;;;5025502;28;20182;-79
2022/02/05 13:58:09;;;;;;;6.30;2.55;;;11.50;99.90;;;;;;5009633;28;20877;-79
2022/02/05 14:00:41;;;;;;;12.90;2.80;;;11.40;99.90;;;;;;5023579;28;20765;-79
2022/02/05 14:03:08;;;;;;;7.30;2.65;;;11.40;99.90;;;;;;5026755;28;20182;-79
2022/02/05 14:05:44;;;;;;;5.25;1.83;;;11.40;99.90;;;;;;5028337;28;20182;-79
2022/02/05 14:08:10;;;;;;;7.60;2.92;;;11.40;99.90;;;;;;5006590;28;20180;-79
2022/02/05 14:10:39;;;;;;;11.47;4.57;;;11.40;99.90;;;;;;5016253;28;20200;-79
2022/02/05 14:13:05;;;;;;;10.32;5.30;;;11.40;99.90;;;;;;5022798;28;20178;-79
2022/02/05 14:15:49;;;;;;;7.37;3.13;;;11.40;99.90;;;;;;5020707;28;20673;-79
2022/02/05 14:18:16;;;;;;;9.82;3.83;;;11.40;99.90;;;;;;5024463;28;20189;-79
2022/02/05 14:20:53;;;;;;;5.63;2.30;;;11.40;99.90;;;;;;5023098;28;20201;-79
2022/02/05 14:23:21;;;;;;;5.53;1.90;;;11.30;99.90;;;;;;5020007;28;20273;-79
2022/02/05 14:25:54;;;;;;;3.72;1.80;;;11.30;99.90;;;;;;5026938;28;20582;-79
2022/02/05 14:28:30;;;;;;;5.72;3.20;;;11.20;99.90;;;;;;5023660;28;20170;-79
2022/02/05 14:31:05;;;;;;;9.13;5.15;;;11.10;99.90;;;;;;4996760;28;20212;-79
2022/02/05 14:34:42;;;;;;;6.70;4.50;;;11.10;99.90;;;;;;5020989;28;20292;-80
2022/02/05 14:40:14;;;;;;;5.20;2.20;;;11.00;99.90;;;;;;5014686;28;20570;-79
2022/02/05 14:42:21;;;;;;;6.20;2.15;;;10.90;99.90;;;;;;5021059;28;20185;-80
2022/02/05 14:44:47;;;;;;;4.47;1.55;;;10.80;99.90;;;;;;5013767;28;20780;-78
2022/02/05 14:47:13;;;;;;;2.65;1.30;;;10.70;99.90;;;;;;5022619;28;20174;-78
2022/02/05 14:49:39;;;;;;;6.10;2.07;;;10.70;99.90;;;;;;5019890;28;20687;-78
2022/02/05 14:52:09;;;;;;;8.13;3.83;;;10.70;99.90;;;;;;5009973;28;20198;-79
2022/02/05 14:54:35;;;;;;;8.23;3.70;;;10.60;99.90;;;;;;5022954;28;20201;-79
2022/02/05 14:57:01;;;;;;;8.90;3.90;;;10.60;99.90;;;;;;5019328;28;20200;-78
2022/02/05 14:59:29;;;;;;;4.93;3.20;;;10.60;99.90;;;;;;5005558;28;20273;-78
2022/02/05 15:01:55;;;;;;;7.20;2.28;;;10.60;99.90;;;;;;5022160;28;20208;-78
2022/02/05 15:04:21;;;;;;;7.10;3.27;;;10.50;99.90;;;;;;5009795;28;20654;-79
2022/02/05 15:06:47;;;;;;;5.80;2.50;;;10.50;99.90;;;;;;5023203;28;20178;-79
2022/02/05 15:09:14;;;;;;;7.15;2.40;;;10.50;99.90;;;;;;5019301;28;20202;-78
2022/02/05 15:11:40;;;;;;;5.78;1.85;;;10.50;99.90;;;;;;5018583;28;20234;-78
2022/02/05 15:14:06;;;;;;;5.20;1.70;;;10.40;99.90;;;;;;5024526;28;20228;-79
2022/02/05 15:16:34;;;;;;;6.47;1.50;;;10.40;99.90;;;;;;4992397;28;20695;-79
2022/02/05 15:19:01;;;;;;;4.10;2.40;;;10.40;99.90;;;;;;5017410;28;20601;-79
2022/02/05 15:21:28;;;;;;;9.52;3.55;;;10.40;99.90;;;;;;4988470;28;20200;-79
2022/02/05 15:23:56;;;;;;;4.82;1.85;;;10.50;99.90;;;;;;5023182;28;20577;-78
2022/02/05 15:26:25;;;;;;;6.93;3.65;;;10.50;99.90;;;;;;5007739;28;20243;-79
2022/02/05 15:28:50;;;;;;;6.82;3.28;;;10.50;99.90;;;;;;5023399;28;20178;-78
2022/02/05 15:31:17;;;;;;;4.00;2.30;;;10.50;99.90;;;;;;5024403;28;20284;-79
2022/02/05 15:33:43;;;;;;;5.05;2.00;;;10.60;99.90;;;;;;5023547;28;20620;-79
2022/02/05 15:36:13;;;;;;;5.90;1.77;;;10.60;99.90;;;;;;5024713;28;20264;-80
2022/02/05 15:38:48;;;;;;;4.07;1.38;;;10.60;99.90;;;;;;5024053;28;20175;-74
2022/02/05 15:46:06;;;;;;;5.70;1.63;;;10.70;99.90;;;;;;5005196;28;20182;-74
2022/02/05 15:48:32;;;;;;;5.85;1.50;;;10.70;99.90;;;;;;5007494;28;20205;-74
2022/02/05 15:50:59;;;;;;;5.40;2.27;;;10.70;99.90;;;;;;5012657;28;20252;-74
2022/02/05 15:53:24;;;;;;;3.83;2.08;;;10.70;99.90;;;;;;5007125;28;20209;-74
2022/02/05 15:55:50;;;;;;;6.53;2.00;;;10.70;99.90;;;;;;5022643;28;20170;-74
2022/02/05 15:58:21;;;;;;;3.40;1.20;;;10.60;99.90;;;;;;5024777;28;20630;-74
2022/02/05 16:00:47;;;;;;;5.13;1.40;;;10.60;99.90;;;;;;5021618;28;20190;-74
2022/02/05 16:03:13;;;;;;;6.85;2.28;;;10.60;99.90;;;;;;5007667;28;20181;-74
2022/02/05 16:05:40;;;;;;;3.40;1.30;;;10.60;99.90;;;;;;5021879;28;20240;-74
2022/02/05 16:08:06;;;;;;;8.57;3.88;;;10.60;99.90;;;;;;5003920;28;20569;-74
2022/02/05 16:10:32;;;;;;;3.55;2.63;;;10.60;99.90;;;;;;5021141;28;20198;-74